X

Important NEWS



New Hub Active

Miami is our new hub! Old members can request transfer via hr@dlxairways.net

Thank you very much and have nice flight.


Deluxe Airways.

X

Tours



Hello again, we created one nice test tour for all pilots to attend. also this is ment to be testing of our tour system

Available Tours

If you find some issues please inform us.

Thank you very much and have nice flight.


Deluxe Airways.

 METAR AND TAF INFORMATION
ArrayMETAR FOR LYTV
49592016 6 LYTV 230530Z 34030G54KT CAVOK 01/M19 Q1019 LYTV 2019-02-23T05:30:00Z 42.38 18.72 1.0 -19.0 340 30 54 6.21 30.088583 VFR METAR 5.0 LYTV 230500Z 34025G72KT CAVOK 01/M20 Q1019 LYTV 2019-02-23T05:00:00Z 42.38 18.72 1.0 -20.0 340 25 72 6.21 30.088583 VFR METAR 5.0 LYTV 230430Z 34025G53KT CAVOK 02/M20 Q1018 LYTV 2019-02-23T04:30:00Z 42.38 18.72 2.0 -20.0 340 25 53 6.21 30.059055 VFR METAR 5.0 LYTV 230400Z 34024G56KT CAVOK 02/M21 Q1017 LYTV 2019-02-23T04:00:00Z 42.38 18.72 2.0 -21.0 340 24 56 6.21 30.029528 VFR METAR 5.0

 AIRPORT MAP

 RUNWAY INFORMATION
Runway 14 Runway length 8208 ft Runway width 148 ft
Runway elevation 7 ft Runway displaced threshold 0 ft Runway heading 139
Runway 32 Runway length 8208 ft Runway width 148 ft
Runway elevation 16 ft Runway displaced threshold 0 ft Runway heading 319

 AIRPORT FREQUENCIES
Type ARR Name APP Frequency 118 MHZ
Type TWR Name TWR Frequency 118 MHZ

 AIRPORT NEAR NAVIGATION AIDS
Type NDB Name Tivat Frequency 345 KHZ



Powered by Virtual Airlines Manager [v2.6.2]

Template code change by DeluxeAir